This is the latest recevied weather packets stored in our database for station/object AA5AW. If no packets are shown the sender has not sent any weather packets the latest 10 day(s).
| Time | Temp. | Humidity | Pressure | Rain* | Wind** | Luminosity | Snow |
|---|---|---|---|---|---|---|---|
| 1777971651 | 18.89° C | 92% | 1009.8 hPa | 0 mm | - | 0 W/m² | - |
| 1777969825 | 18.89° C | 92% | 1010 hPa | 0 mm | - | 0 W/m² | - |
| 1777964442 | 18.89° C | 88% | 1010.7 hPa | 0 mm | - | 0 W/m² | - |
| 1777959945 | 20° C | 84% | 1010.9 hPa | 0 mm | - | 0 W/m² | - |
| 1777954544 | 20.56° C | 80% | 1011.4 hPa | 0 mm | - | 0 W/m² | - |
| 1777953624 | 20.56° C | 79% | 1011.4 hPa | 0 mm | - | 0 W/m² | - |
| 1777947312 | 21.67° C | 74% | 1011.3 hPa | 0 mm | - | 0 W/m² | - |
| 1777946435 | 21.67° C | 74% | 1011.1 hPa | 0 mm | - | 0 W/m² | - |
| 1777936534 | 25.56° C | 62% | 1011.1 hPa | 0 mm | - | 188 W/m² | - |
| 1777926608 | 26.67° C | 49% | 1013.3 hPa | 0 mm | - | 628 W/m² | - |
| 1777920301 | 26.67° C | 50% | 1014.8 hPa | 0 mm | - | 805 W/m² | - |
| 1777919422 | 25.56° C | 44% | 1015.1 hPa | 0 mm | - | 823 W/m² | - |
| 1777916721 | 25° C | 46% | 1016 hPa | 0 mm | - | 810 W/m² | - |
| 1777911350 | 23.33° C | 53% | 1016.9 hPa | 0 mm | - | 705 W/m² | - |
| 1777907742 | 22.22° C | 60% | 1017.2 hPa | 0 mm | - | 464 W/m² | - |
| 1777905959 | 20.56° C | 69% | 1017.4 hPa | 0 mm | - | 401 W/m² | - |
| 1777900539 | 15° C | 89% | 1017.6 hPa | 0 mm | - | 221 W/m² | - |
| 1777897831 | 11.67° C | 96% | 1017.2 hPa | 0 mm | - | 49 W/m² | - |
| 1777895157 | 10° C | 96% | 1016.8 hPa | 0 mm | - | 11 W/m² | - |
| 1777894201 | 10° C | 96% | 1016.7 hPa | 0 mm | - | 0 W/m² | - |
| 1777892444 | 10° C | 95% | 1017 hPa | 0 mm | - | 0 W/m² | - |
| 1777885221 | 11.11° C | 94% | 1017.5 hPa | 0 mm | - | 0 W/m² | - |
| 1777876253 | 12.78° C | 89% | 1018.6 hPa | 0 mm | - | 0 W/m² | - |
| 1777871719 | 13.89° C | 87% | 1019.3 hPa | 0 mm | - | 0 W/m² | - |
| 1777864512 | 16.11° C | 81% | 1019 hPa | 0 mm | - | 0 W/m² | - |
* Rain latest hour (hover to see other rain measurements)
** Current wind speed in m/s (hover to see current wind gust speed)